| time (UTC) | temp C | wind direction | speed KPH | gust KPH | rain 1hr cm | rain 24hr cm | rain mn cm | humidity % | barometer mb |
| 20260504151002 | 20 | 312 | 4.8 | 12.9 | 0.00 | 0.00 | 0.00 | 48 | 1041.4 |
| 20260504150503 | 20 | 0 | 6.4 | 17.7 | 0.00 | 0.00 | 0.00 | 49 | 1041.6 |
| 20260504141003 | 16 | 122 | 1.6 | 6.4 | 0.00 | 0.00 | 0.00 | 66 | 1042.0 |
| 20260504140503 | 16 | 111 | 0.0 | 4.8 | 0.00 | 0.00 | 0.00 | 66 | 1042.0 |
| 20260504130503 | 12 | 313 | 0.0 | 0.0 | 0.00 | 0.00 | 0.00 | 83 | 1041.9 |
| 20260504110503 | 5 | 313 | 0.0 | 0.0 | 0.00 | 0.00 | 0.00 | 96 | 1041.6 |
| 20260504100523 | 6 | 313 | 0.0 | 0.0 | 0.00 | 0.00 | 0.00 | 96 | 1041.3 |
| 20260504082003 | 6 | 313 | 0.0 | 0.0 | 0.00 | 0.00 | 0.00 | 95 | 1040.8 |
| 20260504081503 | 6 | 313 | 0.0 | 0.0 | 0.00 | 0.00 | 0.00 | 94 | 1040.7 |
| 20260504081003 | 6 | 313 | 0.0 | 0.0 | 0.00 | 0.00 | 0.00 | 94 | 1040.8 |
| 20260504080502 | 6 | 313 | 0.0 | 0.0 | 0.00 | 0.00 | 0.00 | 94 | 1040.8 |
| 20260504050502 | 8 | 313 | 0.0 | 0.0 | 0.00 | 0.00 | 0.00 | 86 | 1041.4 |
| 20260504050003 | 8 | 313 | 0.0 | 0.0 | 0.00 | 0.00 | 0.00 | 86 | 1041.3 |
| 20260504045502 | 8 | 313 | 0.0 | 0.0 | 0.00 | 0.00 | 0.00 | 86 | 1041.4 |
| 20260504045003 | 9 | 313 | 0.0 | 0.0 | 0.00 | 0.00 | 0.00 | 86 | 1041.4 |
| 20260504044524 | 9 | 313 | 0.0 | 0.0 | 0.00 | 0.00 | 0.00 | 85 | 1041.4 |
| 20260504044003 | 9 | 313 | 0.0 | 0.0 | 0.00 | 0.00 | 0.00 | 84 | 1041.4 |
| 20260504043503 | 9 | 313 | 0.0 | 0.0 | 0.00 | 0.00 | 0.00 | 84 | 1041.3 |
| 20260504043002 | 9 | 313 | 0.0 | 0.0 | 0.00 | 0.00 | 0.00 | 83 | 1041.3 |
| 20260504042503 | 10 | 313 | 0.0 | 0.0 | 0.00 | 0.00 | 0.00 | 83 | 1041.3 |
| 20260504042045 | 10 | 313 | 0.0 | 0.0 | 0.00 | 0.00 | 0.00 | 83 | 1041.3 |
| 20260504041523 | 10 | 313 | 0.0 | 0.0 | 0.00 | 0.00 | 0.00 | 82 | 1041.3 |
| 20260504041024 | 10 | 313 | 0.0 | 0.0 | 0.00 | 0.00 | 0.00 | 81 | 1041.2 |
| 20260504040503 | 10 | 313 | 0.0 | 0.0 | 0.00 | 0.00 | 0.00 | 80 | 1041.2 |
| 20260504040002 | 10 | 313 | 0.0 | 0.0 | 0.00 | 0.00 | 0.00 | 80 | 1041.2 |
| 20260504035503 | 10 | 313 | 0.0 | 0.0 | 0.00 | 0.00 | 0.00 | 80 | 1041.3 |
| 20260504035002 | 10 | 313 | 0.0 | 0.0 | 0.00 | 0.00 | 0.00 | 79 | 1041.2 |
| 20260504034503 | 11 | 313 | 0.0 | 0.0 | 0.00 | 0.00 | 0.00 | 78 | 1041.2 |
| 20260504034003 | 11 | 313 | 0.0 | 0.0 | 0.00 | 0.00 | 0.00 | 79 | 1041.1 |
| 20260504033503 | 11 | 313 | 0.0 | 0.0 | 0.00 | 0.00 | 0.00 | 78 | 1041.1 |
| 20260504033002 | 11 | 313 | 0.0 | 0.0 | 0.00 | 0.00 | 0.00 | 78 | 1041.2 |
| 20260504032503 | 11 | 313 | 0.0 | 0.0 | 0.00 | 0.00 | 0.00 | 77 | 1041.1 |
| 20260504032002 | 11 | 313 | 0.0 | 0.0 | 0.00 | 0.00 | 0.00 | 77 | 1041.0 |
| 20260504031503 | 11 | 313 | 0.0 | 0.0 | 0.00 | 0.00 | 0.00 | 76 | 1041.1 |
| 20260504031002 | 12 | 313 | 0.0 | 0.0 | 0.00 | 0.00 | 0.00 | 76 | 1041.1 |
| 20260504030524 | 12 | 313 | 0.0 | 0.0 | 0.00 | 0.00 | 0.00 | 76 | 1041.2 |
| 20260504030024 | 12 | 313 | 0.0 | 1.6 | 0.00 | 0.00 | 0.00 | 75 | 1041.1 |
| 20260504025502 | 12 | 313 | 0.0 | 1.6 | 0.00 | 0.00 | 0.00 | 72 | 1041.1 |
| 20260504025003 | 12 | 333 | 0.0 | 3.2 | 0.00 | 0.00 | 0.00 | 73 | 1040.9 |
| 20260504024502 | 12 | 299 | 0.0 | 3.2 | 0.00 | 0.00 | 0.00 | 72 | 1040.9 |
| 20260504024004 | 12 | 304 | 0.0 | 1.6 | 0.00 | 0.00 | 0.00 | 71 | 1040.9 |
| 20260504023502 | 12 | 354 | 0.0 | 3.2 | 0.00 | 0.00 | 0.00 | 71 | 1040.8 |
| 20260504023024 | 12 | 6 | 0.0 | 9.7 | 0.00 | 0.00 | 0.00 | 71 | 1040.7 |
| 20260504022503 | 12 | 335 | 1.6 | 9.7 | 0.00 | 0.00 | 0.00 | 71 | 1040.8 |
| 20260504022002 | 11 | 339 | 3.2 | 9.7 | 0.00 | 0.00 | 0.00 | 74 | 1040.6 |
| 20260504021503 | 11 | 347 | 0.0 | 4.8 | 0.00 | 0.00 | 0.00 | 77 | 1040.5 |
| 20260504021002 | 11 | 336 | 0.0 | 0.0 | 0.00 | 0.00 | 0.00 | 79 | 1040.3 |
| 20260504020503 | 11 | 336 | 0.0 | 0.0 | 0.00 | 0.00 | 0.00 | 80 | 1040.1 |
| 20260504020002 | 11 | 336 | 0.0 | 0.0 | 0.00 | 0.00 | 0.00 | 79 | 1040.2 |
| 20260504015524 | 11 | 336 | 0.0 | 0.0 | 0.00 | 0.00 | 0.00 | 79 | 1040.1 |
| 20260504015024 | 11 | 336 | 0.0 | 0.0 | 0.00 | 0.00 | 0.00 | 80 | 1040.0 |
| 20260504014502 | 11 | 336 | 0.0 | 0.0 | 0.00 | 0.00 | 0.00 | 79 | 1040.0 |
| 20260504014004 | 11 | 336 | 0.0 | 0.0 | 0.00 | 0.00 | 0.00 | 79 | 1040.0 |
| 20260504013502 | 11 | 336 | 0.0 | 0.0 | 0.00 | 0.00 | 0.00 | 79 | 1039.8 |
| 20260504013003 | 11 | 336 | 0.0 | 0.0 | 0.00 | 0.00 | 0.00 | 78 | 1039.7 |
| 20260504012502 | 11 | 336 | 0.0 | 0.0 | 0.00 | 0.00 | 0.00 | 79 | 1039.6 |
| 20260504012024 | 12 | 336 | 0.0 | 0.0 | 0.00 | 0.00 | 0.00 | 78 | 1039.7 |
| 20260504011502 | 12 | 336 | 0.0 | 0.0 | 0.00 | 0.00 | 0.00 | 77 | 1038.2 |
| 20260504011003 | 12 | 336 | 0.0 | 0.0 | 0.00 | 0.00 | 0.00 | 76 | 1039.6 |
| 20260504010503 | 12 | 336 | 0.0 | 0.0 | 0.00 | 0.00 | 0.00 | 76 | 1039.4 |
| 20260504010002 | 12 | 336 | 0.0 | 0.0 | 0.00 | 0.00 | 0.00 | 76 | 1039.2 |
| 20260504005503 | 12 | 336 | 0.0 | 0.0 | 0.00 | 0.00 | 0.00 | 75 | 1039.3 |
| 20260504005002 | 12 | 336 | 0.0 | 0.0 | 0.00 | 0.00 | 0.00 | 74 | 1039.2 |
| 20260504004503 | 13 | 336 | 0.0 | 0.0 | 0.00 | 0.00 | 0.00 | 73 | 1039.1 |
| 20260504004002 | 13 | 336 | 0.0 | 0.0 | 0.00 | 0.00 | 0.00 | 72 | 1038.9 |
| 20260504003546 | 13 | 336 | 0.0 | 0.0 | 0.00 | 0.00 | 0.00 | 71 | 1039.1 |
| 20260504003003 | 13 | 336 | 0.0 | 0.0 | 0.00 | 0.00 | 0.00 | 70 | 1038.0 |
| 20260504002502 | 13 | 336 | 0.0 | 0.0 | 0.00 | 0.00 | 0.00 | 68 | 1039.1 |
| 20260504002003 | 14 | 336 | 0.0 | 0.0 | 0.00 | 0.00 | 0.00 | 67 | 1039.1 |
| 20260504001502 | 15 | 336 | 0.0 | 0.0 | 0.00 | 0.00 | 0.00 | 64 | 1037.9 |
| 20260504001003 | 15 | 336 | 0.0 | 0.0 | 0.00 | 0.00 | 0.00 | 64 | 1038.0 |
| 20260504000502 | 15 | 336 | 0.0 | 0.0 | 0.00 | 0.00 | 0.00 | 63 | 1039.0 |
| 20260504000003 | 15 | 336 | 0.0 | 0.0 | 0.00 | 0.00 | 0.00 | 61 | 1039.0 |
| 20260503235503 | 16 | 336 | 0.0 | 0.0 | 0.00 | 0.00 | 0.00 | 59 | 1039.0 |
| 20260503235025 | 16 | 336 | 0.0 | 0.0 | 0.00 | 0.00 | 0.00 | 58 | 1038.9 |
| 20260503234503 | 17 | 336 | 0.0 | 0.0 | 0.00 | 0.00 | 0.00 | 57 | 1037.7 |
| 20260503234003 | 17 | 336 | 0.0 | 0.0 | 0.00 | 0.00 | 0.00 | 55 | 1037.9 |
| 20260503233503 | 17 | 336 | 0.0 | 0.0 | 0.00 | 0.00 | 0.00 | 54 | 1037.8 |
| 20260503233023 | 17 | 336 | 0.0 | 3.2 | 0.00 | 0.00 | 0.00 | 51 | 1039.0 |
| 20260503232503 | 18 | 336 | 0.0 | 6.4 | 0.00 | 0.00 | 0.00 | 48 | 1038.9 |
| 20260503232023 | 18 | 26 | 0.0 | 6.4 | 0.00 | 0.00 | 0.00 | 48 | 1039.0 |
| 20260503231503 | 18 | 290 | 1.6 | 6.4 | 0.00 | 0.00 | 0.00 | 46 | 1039.0 |
| 20260503231003 | 18 | 344 | 1.6 | 6.4 | 0.00 | 0.00 | 0.00 | 43 | 1039.1 |
| 20260503230503 | 18 | 43 | 0.0 | 4.8 | 0.00 | 0.00 | 0.00 | 44 | 1038.6 |
| 20260503230003 | 18 | 43 | 0.0 | 12.9 | 0.00 | 0.00 | 0.00 | 42 | 1039.2 |
| 20260503225503 | 18 | 39 | 1.6 | 12.9 | 0.00 | 0.00 | 0.00 | 43 | 1038.2 |
| 20260503225024 | 18 | 308 | 4.8 | 11.3 | 0.00 | 0.00 | 0.00 | 40 | 1039.2 |
| 20260503224524 | 19 | 341 | 1.6 | 11.3 | 0.00 | 0.00 | 0.00 | 40 | 1038.1 |
| 20260503224003 | 18 | 30 | 1.6 | 6.4 | 0.00 | 0.00 | 0.00 | 40 | 1039.3 |
| 20260503223503 | 18 | 39 | 0.0 | 4.8 | 0.00 | 0.00 | 0.00 | 42 | 1039.4 |
| 20260503223003 | 19 | 50 | 1.6 | 12.9 | 0.00 | 0.00 | 0.00 | 42 | 1039.6 |
| 20260503222503 | 18 | 78 | 3.2 | 12.9 | 0.00 | 0.00 | 0.00 | 44 | 1039.6 |
| 20260503222003 | 18 | 24 | 4.8 | 11.3 | 0.00 | 0.00 | 0.00 | 40 | 1039.6 |
| 20260503221503 | 18 | 2 | 4.8 | 17.7 | 0.00 | 0.00 | 0.00 | 40 | 1039.7 |
| 20260503221002 | 19 | 316 | 11.3 | 17.7 | 0.00 | 0.00 | 0.00 | 37 | 1039.7 |
| 20260503220503 | 20 | 323 | 4.8 | 11.3 | 0.00 | 0.00 | 0.00 | 37 | 1039.8 |
| 20260503220002 | 20 | 301 | 1.6 | 9.7 | 0.00 | 0.00 | 0.00 | 39 | 1039.7 |
| 20260503215503 | 20 | 333 | 0.0 | 8.0 | 0.00 | 0.00 | 0.00 | 41 | 1039.7 |
| 20260503215023 | 20 | 26 | 1.6 | 14.5 | 0.00 | 0.00 | 0.00 | 41 | 1039.7 |
| 20260503214503 | 19 | 348 | 1.6 | 14.5 | 0.00 | 0.00 | 0.00 | 42 | 1039.7 |
| 20260503214002 | 19 | 329 | 6.4 | 12.9 | 0.00 | 0.00 | 0.00 | 40 | 1039.6 |
| 20260503213525 | 19 | 47 | 0.0 | 6.4 | 0.00 | 0.00 | 0.00 | 42 | 1039.7 |
| 20260503213003 | 19 | 74 | 1.6 | 16.1 | 0.00 | 0.00 | 0.00 | 40 | 1039.8 |
| 20260503212503 | 19 | 7 | 1.6 | 16.1 | 0.00 | 0.00 | 0.00 | 39 | 1039.9 |
| 20260503212003 | 19 | 340 | 4.8 | 16.1 | 0.00 | 0.00 | 0.00 | 40 | 1039.9 |
| 20260503211503 | 19 | 18 | 0.0 | 16.1 | 0.00 | 0.00 | 0.00 | 41 | 1039.9 |
| 20260503211024 | 19 | 358 | 1.6 | 16.1 | 0.00 | 0.00 | 0.00 | 39 | 1039.9 |
| 20260503210524 | 19 | 286 | 3.2 | 17.7 | 0.00 | 0.00 | 0.00 | 40 | 1040.0 |
| 20260503210003 | 19 | 349 | 6.4 | 17.7 | 0.00 | 0.00 | 0.00 | 41 | 1040.1 |
| 20260503205503 | 19 | 312 | 6.4 | 17.7 | 0.00 | 0.00 | 0.00 | 41 | 1040.2 |
| 20260503205003 | 19 | 305 | 3.2 | 17.7 | 0.00 | 0.00 | 0.00 | 40 | 1040.3 |
| 20260503204503 | 19 | 343 | 6.4 | 22.5 | 0.00 | 0.00 | 0.00 | 40 | 1040.5 |
| 20260503204002 | 19 | 345 | 4.8 | 22.5 | 0.00 | 0.00 | 0.00 | 41 | 1040.5 |
| 20260503203524 | 20 | 11 | 3.2 | 9.7 | 0.00 | 0.00 | 0.00 | 43 | 1040.7 |
| 20260503203003 | 19 | 15 | 3.2 | 11.3 | 0.00 | 0.00 | 0.00 | 45 | 1040.9 |
| 20260503202502 | 19 | 302 | 3.2 | 12.9 | 0.00 | 0.00 | 0.00 | 43 | 1041.0 |
| 20260503202003 | 20 | 328 | 6.4 | 12.9 | 0.00 | 0.00 | 0.00 | 42 | 1041.2 |
| 20260503201503 | 20 | 354 | 1.6 | 17.7 | 0.00 | 0.00 | 0.00 | 44 | 1041.3 |